createdAt,value
2022-09-19T00:00:32.104Z,81.21
2022-09-19T00:02:56.240Z,81.13
2022-09-19T00:05:18.079Z,81.22
2022-09-19T00:07:40.081Z,81.45
2022-09-19T00:10:01.913Z,81.40
2022-09-19T00:12:23.740Z,81.57
2022-09-19T00:14:45.549Z,81.22
2022-09-19T00:17:09.116Z,81.15
2022-09-19T00:19:31.337Z,81.23
2022-09-19T00:21:58.429Z,81.32
2022-09-19T00:29:25.877Z,81.20
2022-09-19T00:31:49.837Z,81.10
2022-09-19T00:38:45.855Z,80.95
2022-09-19T00:41:08.425Z,81.16
2022-09-19T00:43:51.441Z,81.09
2022-09-19T00:46:13.752Z,81.38
2022-09-19T00:48:36.678Z,80.98
2022-09-19T00:50:58.578Z,81.34
2022-09-19T00:53:26.059Z,81.21
2022-09-19T00:55:55.673Z,81.04
2022-09-19T00:58:29.411Z,80.98
2022-09-19T01:00:51.653Z,81.25
2022-09-19T01:03:14.234Z,81.29
2022-09-19T01:05:56.230Z,81.10
2022-09-19T01:12:49.423Z,80.84
2022-09-19T01:15:29.902Z,81.10
2022-09-19T01:18:22.931Z,81.05
2022-09-19T01:28:11.831Z,80.99
2022-09-19T01:31:28.336Z,81.07
2022-09-19T01:34:04.093Z,81.11
2022-09-19T01:36:31.510Z,80.83
2022-09-19T01:38:56.370Z,80.73
2022-09-19T01:41:22.712Z,80.89
2022-09-19T01:43:45.030Z,81.01
2022-09-19T01:46:30.542Z,80.63
2022-09-19T01:49:10.678Z,80.73
2022-09-19T01:51:49.164Z,80.77
2022-09-19T01:54:49.354Z,80.65
2022-09-19T02:00:28.679Z,80.56
2022-09-19T02:03:12.128Z,80.71
2022-09-19T02:06:10.310Z,80.89
2022-09-19T02:08:38.051Z,80.75
2022-09-19T02:11:13.037Z,80.67
2022-09-19T02:13:41.414Z,80.68
2022-09-19T02:16:14.708Z,80.71
2022-09-19T02:18:46.560Z,80.85
2022-09-19T02:21:16.817Z,80.72
2022-09-19T02:23:48.361Z,80.96
2022-09-19T02:26:10.825Z,81.11
2022-09-19T02:28:52.812Z,80.77
2022-09-19T02:31:15.444Z,80.84
2022-09-19T02:33:44.151Z,80.74
2022-09-19T02:36:35.679Z,80.83
2022-09-19T02:39:56.555Z,80.74
2022-09-19T02:42:52.118Z,80.69
2022-09-19T02:45:29.215Z,80.73
2022-09-19T02:48:19.220Z,80.75
2022-09-19T02:51:00.191Z,80.38
2022-09-19T02:53:31.283Z,80.61
2022-09-19T02:56:01.009Z,80.49
2022-09-19T02:58:27.744Z,80.34
2022-09-19T03:00:57.206Z,80.46
2022-09-19T03:04:15.887Z,80.46
2022-09-19T03:07:16.633Z,80.27
2022-09-19T03:09:53.950Z,80.23
2022-09-19T03:12:29.378Z,80.35
2022-09-19T03:14:57.243Z,80.34
2022-09-19T03:17:22.611Z,80.43
2022-09-19T03:19:49.043Z,80.29
2022-09-19T03:22:11.604Z,80.21
2022-09-19T03:24:33.460Z,80.20
2022-09-19T03:26:55.521Z,80.08
2022-09-19T03:29:17.347Z,80.10
2022-09-19T03:31:46.752Z,80.31
2022-09-19T03:34:11.863Z,80.02
2022-09-19T03:36:36.341Z,80.10
2022-09-19T03:39:03.010Z,79.99
2022-09-19T03:41:31.876Z,80.04
2022-09-19T03:43:53.849Z,79.87
2022-09-19T03:46:20.767Z,79.85
2022-09-19T03:48:46.413Z,79.74
2022-09-19T03:51:08.556Z,79.74
2022-09-19T03:53:31.724Z,79.81
2022-09-19T03:55:53.832Z,79.66
2022-09-19T03:58:17.222Z,79.88
2022-09-19T04:00:39.822Z,79.64
2022-09-19T04:03:02.023Z,79.56
2022-09-19T04:05:25.362Z,79.32
2022-09-19T04:07:48.798Z,79.50
2022-09-19T04:10:11.578Z,79.32
2022-09-19T04:12:35.875Z,79.35
2022-09-19T04:14:58.457Z,79.25
2022-09-19T04:17:23.718Z,79.25
2022-09-19T04:19:53.913Z,79.28
2022-09-19T04:22:38.922Z,79.16
2022-09-19T04:25:15.887Z,79.28
2022-09-19T04:28:00.037Z,79.28
2022-09-19T04:30:24.967Z,79.35
2022-09-19T04:32:49.879Z,79.64
2022-09-19T04:35:12.190Z,79.53
2022-09-19T04:37:34.054Z,79.47
2022-09-19T04:40:02.440Z,79.55
2022-09-19T04:42:24.638Z,79.89
2022-09-19T04:44:46.532Z,79.91
2022-09-19T04:47:38.124Z,79.47
2022-09-19T04:50:04.363Z,79.58
2022-09-19T04:52:28.231Z,79.62
2022-09-19T04:54:50.640Z,79.65
2022-09-19T04:57:13.598Z,79.61
2022-09-19T04:59:37.793Z,79.69
2022-09-19T05:02:02.644Z,79.71
2022-09-19T05:04:26.098Z,79.61
2022-09-19T05:06:48.570Z,79.81
2022-09-19T05:09:12.952Z,79.77
2022-09-19T05:11:57.166Z,79.72
2022-09-19T05:14:18.995Z,79.72
2022-09-19T05:16:48.372Z,79.32
2022-09-19T05:19:10.327Z,79.44
2022-09-19T05:21:34.755Z,79.19
2022-09-19T05:23:56.654Z,79.12
2022-09-19T05:26:18.566Z,79.15
2022-09-19T05:28:46.931Z,79.00
2022-09-19T05:31:11.184Z,79.23
2022-09-19T05:33:38.349Z,79.05
2022-09-19T05:36:03.925Z,78.67
2022-09-19T05:38:47.857Z,79.12
2022-09-19T05:41:29.970Z,79.00
2022-09-19T05:43:56.954Z,78.98
2022-09-19T05:46:21.583Z,78.79
2022-09-19T05:48:49.491Z,78.94
2022-09-19T05:51:11.640Z,79.08
2022-09-19T05:53:51.947Z,78.84
2022-09-19T05:56:25.946Z,78.84
2022-09-19T05:58:55.329Z,78.77
2022-09-19T06:01:19.457Z,78.82
2022-09-19T06:03:41.847Z,78.88
2022-09-19T06:06:14.829Z,78.74
2022-09-19T06:08:37.302Z,78.91
2022-09-19T06:11:02.348Z,78.68
2022-09-19T06:13:45.952Z,78.82
2022-09-19T06:16:07.882Z,78.48
2022-09-19T06:19:09.627Z,78.83
2022-09-19T06:21:32.965Z,78.84
2022-09-19T06:23:55.010Z,79.02
2022-09-19T06:26:18.465Z,78.81
2022-09-19T06:28:40.443Z,78.98
2022-09-19T06:31:06.131Z,78.86
2022-09-19T06:33:46.870Z,78.83
2022-09-19T06:36:16.077Z,78.92
2022-09-19T06:38:41.972Z,78.82
2022-09-19T06:41:28.540Z,78.77
2022-09-19T06:44:04.399Z,78.11
2022-09-19T06:46:44.981Z,77.93
2022-09-19T06:49:24.366Z,77.76
2022-09-19T06:51:58.584Z,77.97
2022-09-19T06:54:21.105Z,77.72
2022-09-19T06:56:43.664Z,77.95
2022-09-19T06:59:07.570Z,77.56
2022-09-19T07:01:29.733Z,77.38
2022-09-19T07:03:51.937Z,76.97
2022-09-19T07:06:21.080Z,77.16
2022-09-19T07:08:58.589Z,76.99
2022-09-19T07:11:20.469Z,76.76
2022-09-19T07:13:44.426Z,76.44
2022-09-19T07:16:07.536Z,75.64
2022-09-19T07:18:30.446Z,76.05
2022-09-19T07:20:52.794Z,75.82
2022-09-19T07:23:20.596Z,76.17
2022-09-19T07:26:03.308Z,75.34
2022-09-19T07:28:25.571Z,74.96
2022-09-19T07:30:53.906Z,74.68
2022-09-19T07:33:23.267Z,74.29
2022-09-19T07:35:45.252Z,74.31
2022-09-19T07:38:07.850Z,74.10
2022-09-19T07:40:48.372Z,73.94
2022-09-19T07:43:21.526Z,72.70
2022-09-19T07:45:53.312Z,71.94
2022-09-19T07:48:33.833Z,72.33
2022-09-19T07:51:13.676Z,72.28
2022-09-19T07:53:35.985Z,72.48
2022-09-19T07:55:57.891Z,72.00
2022-09-19T07:58:24.718Z,70.75
2022-09-19T08:00:51.913Z,70.83
2022-09-19T08:03:36.928Z,70.09
2022-09-19T08:06:03.087Z,69.79
2022-09-19T08:08:27.620Z,69.57
2022-09-19T08:10:52.572Z,68.87
2022-09-19T08:13:17.180Z,68.64
2022-09-19T08:15:39.666Z,68.57
2022-09-19T08:18:13.778Z,67.75
2022-09-19T08:20:37.690Z,66.93
2022-09-19T08:23:20.254Z,67.68
2022-09-19T08:25:47.821Z,67.99
2022-09-19T08:28:11.450Z,68.57
2022-09-19T08:30:35.423Z,68.27
2022-09-19T08:33:00.601Z,68.06
2022-09-19T08:35:23.708Z,67.94
2022-09-19T08:37:48.579Z,67.57
2022-09-19T08:40:20.118Z,66.54
2022-09-19T08:42:50.386Z,65.35
2022-09-19T08:45:52.611Z,65.82
2022-09-19T08:48:29.145Z,65.30
2022-09-19T08:51:05.151Z,65.46
2022-09-19T08:53:38.126Z,64.16
2022-09-19T08:56:02.415Z,63.72
2022-09-19T08:58:26.433Z,62.55
2022-09-19T09:01:16.549Z,62.81
2022-09-19T09:04:27.236Z,61.77
2022-09-19T09:07:15.718Z,62.08
2022-09-19T09:10:05.842Z,63.05
2022-09-19T09:12:36.650Z,62.79
2022-09-19T09:15:50.262Z,63.41
2022-09-19T09:18:31.549Z,63.56
2022-09-19T09:21:11.457Z,62.73
2022-09-19T09:23:40.966Z,62.52
2022-09-19T09:26:30.985Z,61.85
2022-09-19T09:29:35.422Z,61.50
2022-09-19T09:32:17.604Z,61.48
2022-09-19T09:34:59.759Z,62.04
2022-09-19T09:37:59.054Z,61.53
2022-09-19T09:40:48.693Z,62.06
2022-09-19T09:43:15.830Z,62.59
2022-09-19T09:45:50.291Z,61.85
2022-09-19T09:48:32.940Z,61.56
2022-09-19T09:51:21.627Z,60.06
2022-09-19T09:54:33.775Z,59.56
2022-09-19T09:57:20.817Z,58.05
2022-09-19T10:00:32.415Z,57.46
2022-09-19T10:03:39.474Z,58.28
2022-09-19T10:06:19.905Z,58.08
2022-09-19T10:09:14.715Z,56.29
2022-09-19T10:14:40.750Z,56.22
2022-09-19T10:17:21.203Z,55.79
2022-09-19T10:19:48.415Z,54.86
2022-09-19T10:22:17.027Z,55.89
2022-09-19T10:25:00.577Z,57.88
2022-09-19T10:27:32.482Z,59.41
2022-09-19T10:30:26.145Z,60.75
2022-09-19T10:32:50.172Z,62.31
2022-09-19T10:35:39.983Z,63.64
2022-09-19T10:38:14.670Z,64.57
2022-09-19T10:40:36.664Z,66.17
2022-09-19T10:43:01.427Z,67.40
2022-09-19T10:45:37.551Z,67.71
2022-09-19T10:48:28.158Z,68.22
2022-09-19T10:50:50.255Z,69.01
2022-09-19T10:53:31.274Z,69.78
2022-09-19T10:55:54.087Z,70.17
2022-09-19T10:58:27.597Z,70.06
2022-09-19T11:01:24.752Z,70.26
2022-09-19T11:04:02.354Z,70.44
2022-09-19T11:06:24.762Z,70.09
2022-09-19T11:08:52.892Z,70.16
2022-09-19T11:11:38.598Z,70.36
2022-09-19T11:14:18.263Z,70.69
2022-09-19T11:16:57.091Z,69.98
2022-09-19T11:19:52.777Z,69.93
2022-09-19T11:23:15.184Z,70.12
2022-09-19T11:26:19.532Z,70.08
2022-09-19T11:29:19.443Z,69.81
2022-09-19T11:35:34.062Z,69.68
2022-09-19T11:41:28.347Z,68.87
2022-09-19T11:44:33.199Z,66.72
2022-09-19T11:47:47.960Z,66.70
2022-09-19T11:51:08.230Z,64.56
2022-09-19T11:53:44.816Z,62.71
2022-09-19T11:57:07.041Z,63.05
2022-09-19T12:00:17.530Z,62.43
2022-09-19T12:02:59.320Z,60.93
2022-09-19T12:06:02.799Z,61.56
2022-09-19T12:08:53.858Z,61.36
2022-09-19T12:11:38.646Z,61.42
2022-09-19T12:14:08.608Z,62.05
2022-09-19T12:16:48.455Z,63.40
2022-09-19T12:19:30.798Z,64.07
2022-09-19T12:22:01.020Z,64.61
2022-09-19T12:24:54.478Z,64.37
2022-09-19T12:27:41.428Z,64.46
2022-09-19T12:30:14.203Z,64.71
2022-09-19T12:33:03.239Z,64.74
2022-09-19T12:35:39.996Z,64.68
2022-09-19T12:38:33.991Z,65.06
2022-09-19T12:41:11.655Z,65.45
2022-09-19T12:43:46.104Z,65.96
2022-09-19T12:46:37.134Z,66.61
2022-09-19T12:49:18.149Z,67.21
2022-09-19T12:52:29.708Z,67.39
2022-09-19T12:55:18.051Z,67.27
2022-09-19T12:58:27.729Z,66.72
2022-09-19T13:00:52.301Z,66.59
2022-09-19T13:03:23.387Z,66.50
2022-09-19T13:06:00.619Z,66.80
2022-09-19T13:08:47.013Z,66.83
2022-09-19T13:11:35.238Z,66.52
2022-09-19T13:14:07.340Z,66.03
2022-09-19T13:16:36.942Z,62.27
2022-09-19T13:19:19.301Z,61.17
2022-09-19T13:22:04.088Z,62.66
2022-09-19T13:24:54.056Z,64.22
2022-09-19T13:27:15.962Z,65.96
2022-09-19T13:29:41.465Z,66.65
2022-09-19T13:32:10.974Z,67.70
2022-09-19T13:34:40.376Z,68.54
2022-09-19T13:37:05.405Z,69.16
2022-09-19T13:39:55.106Z,69.63
2022-09-19T13:42:30.967Z,69.92
2022-09-19T13:45:15.499Z,69.14
2022-09-19T13:47:46.775Z,69.16
2022-09-19T13:50:29.292Z,68.02
2022-09-19T13:53:02.553Z,66.85
2022-09-19T13:55:35.442Z,66.63
2022-09-19T13:58:33.839Z,65.59
2022-09-19T14:01:24.062Z,66.23
2022-09-19T14:04:18.356Z,66.81
2022-09-19T14:12:36.372Z,66.36
2022-09-19T14:14:58.189Z,66.47
2022-09-19T14:17:19.901Z,65.86
2022-09-19T14:19:54.773Z,65.16
2022-09-19T14:22:38.667Z,65.20
2022-09-19T14:25:23.199Z,65.78
2022-09-19T14:28:00.036Z,66.13
2022-09-19T14:30:48.129Z,65.98
2022-09-19T14:33:43.518Z,66.12
2022-09-19T14:36:23.540Z,65.27
2022-09-19T14:39:06.832Z,65.10
2022-09-19T14:42:06.025Z,61.62
2022-09-19T14:45:05.899Z,62.04
2022-09-19T14:47:39.501Z,63.92
2022-09-19T14:50:44.497Z,64.71
2022-09-19T14:53:26.949Z,65.73
2022-09-19T14:56:00.141Z,66.12
2022-09-19T14:58:34.516Z,66.23
2022-09-19T15:01:15.433Z,66.73
2022-09-19T15:03:58.637Z,66.93
2022-09-19T15:06:33.419Z,67.40
2022-09-19T15:08:55.367Z,67.50
2022-09-19T15:11:20.199Z,67.54
2022-09-19T15:13:47.763Z,67.16
2022-09-19T15:16:10.719Z,66.91
2022-09-19T15:18:43.731Z,67.17
2022-09-19T15:21:13.048Z,67.09
2022-09-19T15:23:41.349Z,67.11
2022-09-19T15:26:07.685Z,67.15
2022-09-19T15:28:39.185Z,67.30
2022-09-19T15:31:01.019Z,67.21
2022-09-19T15:33:24.058Z,67.50
2022-09-19T15:35:48.588Z,67.40
2022-09-19T15:38:22.903Z,66.95
2022-09-19T15:40:45.693Z,66.21
2022-09-19T15:43:08.313Z,65.80
2022-09-19T15:45:38.926Z,65.11
2022-09-19T15:48:19.024Z,62.48
2022-09-19T15:50:48.434Z,62.93
2022-09-19T15:53:29.370Z,62.14
2022-09-19T15:56:20.512Z,61.61
2022-09-19T15:59:00.343Z,61.36
2022-09-19T16:01:33.817Z,61.98
2022-09-19T16:04:11.559Z,61.75
2022-09-19T16:07:10.577Z,61.81
2022-09-19T16:09:38.407Z,62.16
2022-09-19T16:12:02.235Z,62.03
2022-09-19T16:14:29.090Z,62.85
2022-09-19T16:16:54.884Z,63.89
2022-09-19T16:19:24.181Z,65.22
2022-09-19T16:21:46.114Z,65.77
2022-09-19T16:24:18.141Z,66.82
2022-09-19T16:26:40.569Z,67.71
2022-09-19T16:29:03.467Z,68.82
2022-09-19T16:31:36.555Z,68.66
2022-09-19T16:34:09.253Z,69.30
2022-09-19T16:36:32.435Z,69.79
2022-09-19T16:39:21.054Z,70.08
2022-09-19T16:42:02.932Z,70.29
2022-09-19T16:44:24.672Z,70.46
2022-09-19T16:46:48.140Z,69.99
2022-09-19T16:49:09.987Z,70.04
2022-09-19T16:51:31.786Z,70.27
2022-09-19T16:53:53.551Z,70.92
2022-09-19T16:56:19.091Z,71.10
2022-09-19T16:58:40.854Z,70.80
2022-09-19T17:01:02.900Z,70.84
2022-09-19T17:03:24.741Z,70.72
2022-09-19T17:05:47.010Z,70.94
2022-09-19T17:08:09.010Z,71.11
2022-09-19T17:10:33.042Z,71.08
2022-09-19T17:12:55.607Z,70.86
2022-09-19T17:15:33.912Z,71.18
2022-09-19T17:17:56.315Z,71.29
2022-09-19T17:20:18.130Z,71.18
2022-09-19T17:22:39.912Z,71.20
2022-09-19T17:25:01.642Z,71.34
2022-09-19T17:27:23.577Z,71.50
2022-09-19T17:29:45.333Z,71.43
2022-09-19T17:32:11.416Z,71.64
2022-09-19T17:34:33.431Z,71.58
2022-09-19T17:36:55.219Z,71.64
2022-09-19T17:39:17.753Z,71.79
2022-09-19T17:41:39.514Z,71.68
2022-09-19T17:44:03.466Z,71.83
2022-09-19T17:46:25.312Z,71.90
2022-09-19T17:48:52.142Z,72.06
2022-09-19T17:51:18.247Z,72.01
2022-09-19T17:53:41.653Z,72.07
2022-09-19T17:56:22.330Z,72.14
2022-09-19T17:58:49.506Z,72.40
2022-09-19T18:01:29.665Z,72.34
2022-09-19T18:03:51.645Z,72.41
2022-09-19T18:06:14.073Z,72.71
2022-09-19T18:08:35.866Z,72.57
2022-09-19T18:11:06.166Z,72.46
2022-09-19T18:13:28.024Z,72.67
2022-09-19T18:15:50.016Z,72.65
2022-09-19T18:18:13.339Z,72.96
2022-09-19T18:20:35.451Z,73.19
2022-09-19T18:22:57.755Z,73.28
2022-09-19T18:25:19.771Z,73.44
2022-09-19T18:27:45.789Z,73.60
2022-09-19T18:30:09.194Z,73.85
2022-09-19T18:32:31.553Z,73.63
2022-09-19T18:34:54.428Z,73.69
2022-09-19T18:37:16.398Z,73.96
2022-09-19T18:39:38.150Z,73.81
2022-09-19T18:42:00.181Z,74.00
2022-09-19T18:44:22.600Z,73.86
2022-09-19T18:46:46.297Z,73.81
2022-09-19T18:49:08.307Z,74.10
2022-09-19T18:51:30.364Z,74.05
2022-09-19T18:53:55.650Z,74.07
2022-09-19T18:56:18.751Z,74.21
2022-09-19T18:58:41.679Z,74.40
2022-09-19T19:01:07.762Z,74.48
2022-09-19T19:03:29.655Z,74.41
2022-09-19T19:05:51.897Z,74.51
2022-09-19T19:08:16.768Z,74.72
2022-09-19T19:10:38.604Z,74.59
2022-09-19T19:13:00.529Z,74.56
2022-09-19T19:15:23.681Z,74.68
2022-09-19T19:17:47.278Z,74.53
2022-09-19T19:20:09.216Z,74.42
2022-09-19T19:22:31.164Z,74.56
2022-09-19T19:24:52.941Z,74.52
2022-09-19T19:27:14.746Z,74.55
2022-09-19T19:29:36.626Z,74.16
2022-09-19T19:31:59.769Z,74.43
2022-09-19T19:34:21.572Z,74.46
2022-09-19T19:36:43.507Z,74.68
2022-09-19T19:39:09.102Z,74.46
2022-09-19T19:41:31.325Z,74.56
2022-09-19T19:43:55.884Z,74.37
2022-09-19T19:46:21.133Z,74.39
2022-09-19T19:48:44.206Z,74.41
2022-09-19T19:51:11.539Z,74.60
2022-09-19T19:53:35.494Z,74.63
2022-09-19T19:56:00.183Z,74.35
2022-09-19T19:58:21.954Z,74.44
2022-09-19T20:00:43.770Z,74.32
2022-09-19T20:03:05.690Z,74.35
2022-09-19T20:05:27.912Z,74.52
2022-09-19T20:07:49.694Z,74.29
2022-09-19T20:10:11.423Z,74.27
2022-09-19T20:12:33.217Z,74.38
2022-09-19T20:14:54.993Z,74.02
2022-09-19T20:17:16.838Z,74.55
2022-09-19T20:19:39.734Z,74.09
2022-09-19T20:22:02.374Z,74.39
2022-09-19T20:24:24.476Z,74.10
2022-09-19T20:26:48.030Z,74.20
2022-09-19T20:29:14.997Z,74.08
2022-09-19T20:31:37.020Z,73.80
2022-09-19T20:33:59.015Z,74.11
2022-09-19T20:36:21.046Z,73.78
2022-09-19T20:38:43.302Z,74.22
2022-09-19T20:41:07.725Z,74.10
2022-09-19T20:43:31.571Z,74.06
2022-09-19T20:45:58.704Z,74.18
2022-09-19T20:48:20.549Z,74.25
2022-09-19T20:50:57.724Z,73.75
2022-09-19T20:53:20.350Z,74.19
2022-09-19T20:55:42.837Z,74.38
2022-09-19T20:58:05.106Z,74.07
2022-09-19T21:00:26.952Z,74.18
2022-09-19T21:02:48.776Z,74.31
2022-09-19T21:05:10.791Z,74.47
2022-09-19T21:07:34.983Z,74.35
2022-09-19T21:09:56.712Z,74.16
2022-09-19T21:12:42.961Z,74.57
2022-09-19T21:15:01.055Z,74.29
2022-09-19T21:17:22.818Z,74.67
2022-09-19T21:19:44.553Z,74.64
2022-09-19T21:22:07.171Z,74.43
2022-09-19T21:24:29.152Z,74.38
2022-09-19T21:26:51.091Z,74.53
2022-09-19T21:29:13.086Z,74.35
2022-09-19T21:31:36.623Z,74.49
2022-09-19T21:34:00.900Z,74.59
2022-09-19T21:36:25.275Z,74.40
2022-09-19T21:38:47.277Z,74.90
2022-09-19T21:41:12.763Z,74.40
2022-09-19T21:43:40.941Z,74.49
2022-09-19T21:46:25.407Z,74.78
2022-09-19T21:48:49.195Z,74.95
2022-09-19T21:51:17.764Z,74.57
2022-09-19T21:53:39.628Z,74.79
2022-09-19T21:56:02.050Z,74.63
2022-09-19T21:58:24.507Z,75.08
2022-09-19T22:00:47.982Z,74.85
2022-09-19T22:03:09.862Z,74.91
2022-09-19T22:05:31.668Z,74.86
2022-09-19T22:07:53.392Z,74.97
2022-09-19T22:10:15.189Z,74.89
2022-09-19T22:12:36.948Z,74.77
2022-09-19T22:14:58.690Z,75.02
2022-09-19T22:17:20.426Z,74.98
2022-09-19T22:19:42.254Z,75.20
2022-09-19T22:22:04.216Z,75.28
2022-09-19T22:24:26.307Z,75.10
2022-09-19T22:26:48.058Z,75.16
2022-09-19T22:29:09.821Z,75.54
2022-09-19T22:31:31.776Z,75.01
2022-09-19T22:33:54.849Z,75.29
2022-09-19T22:36:24.527Z,75.42
2022-09-19T22:38:50.097Z,75.56
2022-09-19T22:41:14.539Z,75.49
2022-09-19T22:43:36.610Z,75.72
2022-09-19T22:45:59.467Z,75.53
2022-09-19T22:48:23.107Z,75.78
2022-09-19T22:50:44.886Z,76.04
2022-09-19T22:53:06.677Z,75.89
2022-09-19T22:55:28.554Z,75.80
2022-09-19T22:57:53.994Z,76.06
2022-09-19T23:00:15.905Z,75.96
2022-09-19T23:02:38.389Z,75.89
2022-09-19T23:05:00.476Z,75.82
2022-09-19T23:07:22.328Z,76.31
2022-09-19T23:09:44.465Z,75.83
2022-09-19T23:12:06.468Z,76.05
2022-09-19T23:14:28.302Z,76.04
2022-09-19T23:16:52.905Z,76.21
2022-09-19T23:19:21.376Z,76.14
2022-09-19T23:21:47.230Z,75.92
2022-09-19T23:24:15.309Z,76.24
2022-09-19T23:26:37.155Z,75.78
2022-09-19T23:28:59.424Z,76.07
2022-09-19T23:31:21.549Z,75.98
2022-09-19T23:33:44.193Z,76.22
2022-09-19T23:36:11.924Z,76.19
2022-09-19T23:38:34.328Z,75.99
2022-09-19T23:41:08.362Z,75.73
2022-09-19T23:43:30.797Z,75.79
2022-09-19T23:45:52.629Z,75.77
2022-09-19T23:48:15.131Z,76.01
2022-09-19T23:50:36.864Z,76.09
2022-09-19T23:52:58.699Z,76.03
2022-09-19T23:55:20.593Z,75.98
2022-09-19T23:57:43.446Z,76.08
